createdAt,value
2017-11-04T00:00:03.564Z,100276.25
2017-11-04T00:02:31.062Z,100270.82
2017-11-04T00:04:58.544Z,100269.50
2017-11-04T00:07:26.011Z,100274.66
2017-11-04T00:09:53.482Z,100268.30
2017-11-04T00:12:20.952Z,100267.52
2017-11-04T00:14:48.424Z,100267.63
2017-11-04T00:17:15.924Z,100263.00
2017-11-04T00:19:43.392Z,100261.39
2017-11-04T00:22:10.873Z,100260.84
2017-11-04T00:24:38.402Z,100258.73
2017-11-04T00:27:05.932Z,100252.09
2017-11-04T00:29:33.408Z,100256.98
2017-11-04T00:32:00.918Z,100254.31
2017-11-04T00:34:28.402Z,100250.61
2017-11-04T00:36:55.912Z,100247.03
2017-11-04T00:39:23.571Z,100243.97
2017-11-04T00:41:51.029Z,100246.87
2017-11-04T00:44:18.504Z,100241.17
2017-11-04T00:46:45.999Z,100239.56
2017-11-04T00:49:13.456Z,100244.61
2017-11-04T00:51:40.963Z,100239.70
2017-11-04T00:54:08.426Z,100243.02
2017-11-04T00:56:35.951Z,100239.42
2017-11-04T00:59:04.271Z,100235.84
2017-11-04T01:01:31.745Z,100240.22
2017-11-04T01:03:59.196Z,100232.12
2017-11-04T01:06:26.707Z,100233.31
2017-11-04T01:08:54.203Z,100231.99
2017-11-04T01:11:21.713Z,100225.36
2017-11-04T01:13:49.179Z,100230.42
2017-11-04T01:16:16.649Z,100229.09
2017-11-04T01:18:44.117Z,100224.47
2017-11-04T01:21:11.597Z,100211.59
2017-11-04T01:23:39.059Z,100221.16
2017-11-04T01:26:06.681Z,100214.80
2017-11-04T01:28:34.185Z,100212.67
2017-11-04T01:31:01.674Z,100208.84
2017-11-04T01:33:29.947Z,100208.55
2017-11-04T01:35:57.432Z,100208.16
2017-11-04T01:38:24.924Z,100203.28
2017-11-04T01:40:52.447Z,100203.56
2017-11-04T01:43:19.904Z,100201.16
2017-11-04T01:45:47.469Z,100195.36
2017-11-04T01:48:14.371Z,100193.89
2017-11-04T01:50:42.805Z,100191.66
2017-11-04T01:53:17.293Z,100193.13
2017-11-04T01:55:44.762Z,100193.13
2017-11-04T01:58:12.275Z,100192.45
2017-11-04T02:00:39.738Z,100186.61
2017-11-04T02:03:07.220Z,100187.27
2017-11-04T02:05:34.675Z,100188.86
2017-11-04T02:08:02.201Z,100183.05
2017-11-04T02:10:29.673Z,100178.66
2017-11-04T02:12:57.168Z,100177.90
2017-11-04T02:15:24.631Z,100179.09
2017-11-04T02:17:52.155Z,100176.16
2017-11-04T02:20:19.650Z,100179.61
2017-11-04T02:22:47.159Z,100168.73
2017-11-04T02:25:14.657Z,100170.35
2017-11-04T02:27:42.203Z,100168.49
2017-11-04T02:30:09.681Z,100163.87
2017-11-04T02:32:37.190Z,100161.47
2017-11-04T02:35:04.645Z,100163.22
2017-11-04T02:37:32.107Z,100163.09
2017-11-04T02:39:59.555Z,100159.11
2017-11-04T02:42:27.390Z,100160.21
2017-11-04T02:44:54.838Z,100159.55
2017-11-04T02:47:22.299Z,100157.95
2017-11-04T02:49:49.802Z,100157.94
2017-11-04T02:52:17.314Z,100155.56
2017-11-04T02:54:44.809Z,100150.01
2017-11-04T02:57:12.327Z,100156.76
2017-11-04T02:59:39.788Z,100152.93
2017-11-04T03:02:07.284Z,100146.73
2017-11-04T03:04:34.756Z,100136.77
2017-11-04T03:07:02.536Z,100141.42
2017-11-04T03:09:31.301Z,100138.09
2017-11-04T03:11:58.755Z,100143.38
2017-11-04T03:14:26.251Z,100134.64
2017-11-04T03:16:53.775Z,100136.11
2017-11-04T03:19:21.700Z,100130.41
2017-11-04T03:21:55.655Z,100131.31
2017-11-04T03:24:24.630Z,100135.84
2017-11-04T03:26:52.363Z,100133.59
2017-11-04T03:29:19.878Z,100126.00
2017-11-04T03:31:47.412Z,100124.03
2017-11-04T03:34:14.878Z,100127.21
2017-11-04T03:36:42.597Z,100123.12
2017-11-04T03:39:10.088Z,100119.65
2017-11-04T03:41:37.572Z,100114.06
2017-11-04T03:44:05.071Z,100120.32
2017-11-04T03:46:32.577Z,100115.01
2017-11-04T03:49:00.056Z,100120.82
2017-11-04T03:51:27.672Z,100118.84
2017-11-04T03:53:55.134Z,100117.89
2017-11-04T03:56:22.620Z,100124.37
2017-11-04T03:58:50.964Z,100113.55
2017-11-04T04:01:19.248Z,100117.38
2017-11-04T04:03:46.707Z,100112.34
2017-11-04T04:06:14.608Z,100109.84
2017-11-04T04:08:42.225Z,100108.39
2017-11-04T04:11:09.894Z,100110.22
2017-11-04T04:13:38.064Z,100103.47
2017-11-04T04:16:05.515Z,100107.72
2017-11-04T04:18:33.058Z,100105.76
2017-11-04T04:21:00.511Z,100101.23
2017-11-04T04:23:28.473Z,100100.05
2017-11-04T04:25:55.979Z,100100.22
2017-11-04T04:28:23.503Z,100096.23
2017-11-04T04:30:50.975Z,100096.76
2017-11-04T04:33:18.457Z,100093.19
2017-11-04T04:35:45.936Z,100098.10
2017-11-04T04:38:13.407Z,100091.75
2017-11-04T04:40:40.929Z,100089.64
2017-11-04T04:43:08.432Z,100092.80
2017-11-04T04:45:35.908Z,100086.46
2017-11-04T04:48:03.385Z,100088.46
2017-11-04T04:50:30.861Z,100091.53
2017-11-04T04:52:58.399Z,100079.88
2017-11-04T04:55:25.872Z,100082.02
2017-11-04T04:57:53.337Z,100082.95
2017-11-04T05:00:20.855Z,100085.59
2017-11-04T05:02:48.355Z,100081.09
2017-11-04T05:05:16.240Z,100080.59
2017-11-04T05:07:43.714Z,100086.80
2017-11-04T05:10:11.175Z,100081.00
2017-11-04T05:12:38.724Z,100078.50
2017-11-04T05:15:06.198Z,100072.41
2017-11-04T05:17:33.674Z,100071.47
2017-11-04T05:20:01.154Z,100071.75
2017-11-04T05:22:28.923Z,100067.64
2017-11-04T05:24:56.389Z,100068.30
2017-11-04T05:27:23.865Z,100067.52
2017-11-04T05:29:51.331Z,100064.88
2017-11-04T05:32:18.783Z,100067.81
2017-11-04T05:34:46.301Z,100062.27
2017-11-04T05:37:13.772Z,100066.89
2017-11-04T05:39:41.300Z,100056.98
2017-11-04T05:42:08.779Z,100059.36
2017-11-04T05:44:36.240Z,100054.61
2017-11-04T05:47:03.713Z,100051.70
2017-11-04T05:49:31.193Z,100049.34
2017-11-04T05:51:59.596Z,100045.23
2017-11-04T05:54:27.064Z,100050.66
2017-11-04T05:56:54.569Z,100051.17
2017-11-04T05:59:22.079Z,100051.73
2017-11-04T06:01:49.531Z,100051.59
2017-11-04T06:04:18.309Z,100052.38
2017-11-04T06:06:45.777Z,100052.02
2017-11-04T06:09:13.249Z,100039.16
2017-11-04T06:11:40.706Z,100042.89
2017-11-04T06:14:08.774Z,100045.91
2017-11-04T06:16:36.238Z,100039.98
2017-11-04T06:19:03.702Z,100040.77
2017-11-04T06:21:31.171Z,100033.77
2017-11-04T06:23:58.651Z,100043.95
2017-11-04T06:26:26.137Z,100043.41
2017-11-04T06:28:58.644Z,100045.15
2017-11-04T06:31:26.238Z,100044.87
2017-11-04T06:33:53.736Z,100043.17
2017-11-04T06:36:21.298Z,100045.92
2017-11-04T06:38:48.796Z,100045.69
2017-11-04T06:41:16.321Z,100049.40
2017-11-04T06:43:43.909Z,100046.61
2017-11-04T06:46:11.435Z,100040.54
2017-11-04T06:48:40.731Z,100048.19
2017-11-04T06:51:08.347Z,100041.57
2017-11-04T06:53:36.746Z,100041.03
2017-11-04T06:56:04.269Z,100046.99
2017-11-04T06:58:31.795Z,100047.64
2017-11-04T07:00:59.329Z,100043.53
2017-11-04T07:03:26.871Z,100045.53
2017-11-04T07:05:54.407Z,100042.06
2017-11-04T07:08:21.884Z,100051.32
2017-11-04T07:10:49.428Z,100048.80
2017-11-04T07:13:16.985Z,100052.51
2017-11-04T07:15:44.444Z,100054.36
2017-11-04T07:18:11.902Z,100055.81
2017-11-04T07:20:39.472Z,100049.55
2017-11-04T07:23:06.963Z,100052.61
2017-11-04T07:25:34.452Z,100045.72
2017-11-04T07:28:01.936Z,100044.25
2017-11-04T07:30:29.412Z,100050.86
2017-11-04T07:32:56.934Z,100056.84
2017-11-04T07:35:24.808Z,100056.56
2017-11-04T07:37:52.294Z,100058.56
2017-11-04T07:40:19.762Z,100054.84
2017-11-04T07:42:48.221Z,100048.88
2017-11-04T07:45:15.724Z,100053.39
2017-11-04T07:47:43.244Z,100050.34
2017-11-04T07:50:10.739Z,100042.52
2017-11-04T07:52:38.235Z,100048.06
2017-11-04T07:55:05.713Z,100035.72
2017-11-04T07:57:33.190Z,100027.61
2017-11-04T08:00:00.706Z,100026.41
2017-11-04T08:02:28.211Z,100019.77
2017-11-04T08:04:55.711Z,100014.80
2017-11-04T08:07:23.206Z,100018.59
2017-11-04T08:09:50.714Z,100014.11
2017-11-04T08:12:18.188Z,100016.16
2017-11-04T08:14:45.674Z,100012.86
2017-11-04T08:17:13.147Z,100011.67
2017-11-04T08:19:41.368Z,100004.05
2017-11-04T08:22:08.848Z,100004.28
2017-11-04T08:24:36.314Z,99995.38
2017-11-04T08:27:03.798Z,99993.18
2017-11-04T08:29:31.290Z,99997.17
2017-11-04T08:31:58.768Z,99993.46
2017-11-04T08:34:26.267Z,99987.20
2017-11-04T08:36:56.258Z,99985.91
2017-11-04T08:39:23.793Z,99982.16
2017-11-04T08:41:51.249Z,99980.69
2017-11-04T08:44:18.725Z,99986.62
2017-11-04T08:46:46.215Z,99983.18
2017-11-04T08:49:13.793Z,99990.00
2017-11-04T08:51:41.289Z,99984.27
2017-11-04T08:54:08.778Z,99986.47
2017-11-04T08:56:36.253Z,99976.72
2017-11-04T08:59:03.762Z,99972.58
2017-11-04T09:01:31.292Z,99979.39
2017-11-04T09:03:58.777Z,99970.85
2017-11-04T09:06:26.256Z,99970.30
2017-11-04T09:08:54.353Z,99976.27
2017-11-04T09:11:21.875Z,99975.64
2017-11-04T09:13:49.346Z,99972.86
2017-11-04T09:16:16.878Z,99971.69
2017-11-04T09:18:44.403Z,99977.86
2017-11-04T09:21:18.341Z,99974.44
2017-11-04T09:23:45.796Z,99972.63
2017-11-04T09:26:13.293Z,99975.40
2017-11-04T09:28:40.755Z,99969.02
2017-11-04T09:31:08.231Z,99972.11
2017-11-04T09:33:35.710Z,99968.75
2017-11-04T09:36:03.192Z,99970.63
2017-11-04T09:38:30.668Z,99963.13
2017-11-04T09:40:58.223Z,99972.05
2017-11-04T09:43:25.772Z,99962.00
2017-11-04T09:45:53.236Z,99962.99
2017-11-04T09:48:20.729Z,99959.78
2017-11-04T09:50:48.215Z,99960.16
2017-11-04T09:53:15.724Z,99959.83
2017-11-04T09:55:43.195Z,99951.86
2017-11-04T09:58:11.530Z,99940.42
2017-11-04T10:00:39.056Z,99932.94
2017-11-04T10:03:06.624Z,99935.98
2017-11-04T10:05:34.109Z,99926.12
2017-11-04T10:08:01.600Z,99934.11
2017-11-04T10:10:29.067Z,99923.30
2017-11-04T10:12:56.564Z,99930.31
2017-11-04T10:15:24.439Z,99921.14
2017-11-04T10:17:51.992Z,99922.63
2017-11-04T10:20:19.468Z,99921.42
2017-11-04T10:22:46.966Z,99920.05
2017-11-04T10:25:14.504Z,99924.10
2017-11-04T10:27:42.009Z,99911.81
2017-11-04T10:30:09.562Z,99910.80
2017-11-04T10:32:37.276Z,99910.47
2017-11-04T10:35:04.788Z,99895.03
2017-11-04T10:37:32.416Z,99890.80
2017-11-04T10:39:59.960Z,99889.53
2017-11-04T10:42:39.105Z,99885.32
2017-11-04T10:45:07.316Z,99888.31
2017-11-04T10:47:35.754Z,99883.06
2017-11-04T10:50:05.046Z,99877.14
2017-11-04T10:52:32.551Z,99874.84
2017-11-04T10:55:00.130Z,99867.62
2017-11-04T10:57:27.673Z,99865.01
2017-11-04T10:59:55.180Z,99858.28
2017-11-04T11:02:22.720Z,99858.48
2017-11-04T11:04:50.208Z,99856.47
2017-11-04T11:07:17.716Z,99853.14
2017-11-04T11:09:45.238Z,99851.59
2017-11-04T11:12:12.782Z,99851.03
2017-11-04T11:14:40.262Z,99852.78
2017-11-04T11:17:07.818Z,99854.16
2017-11-04T11:19:35.385Z,99847.16
2017-11-04T11:22:02.958Z,99847.83
2017-11-04T11:24:30.515Z,99857.70
2017-11-04T11:26:58.058Z,99856.27
2017-11-04T11:29:25.591Z,99852.80
2017-11-04T11:31:53.153Z,99851.97
2017-11-04T11:34:20.716Z,99844.86
2017-11-04T11:36:48.215Z,99838.55
2017-11-04T11:39:15.727Z,99852.03
2017-11-04T11:41:43.219Z,99838.36
2017-11-04T11:44:10.782Z,99837.72
2017-11-04T11:46:38.305Z,99828.66
2017-11-04T11:49:05.842Z,99819.06
2017-11-04T11:51:33.352Z,99825.80
2017-11-04T11:54:00.921Z,99818.04
2017-11-04T11:56:28.443Z,99822.88
2017-11-04T11:58:55.981Z,99816.20
2017-11-04T12:01:23.557Z,99816.86
2017-11-04T12:03:51.060Z,99815.19
2017-11-04T12:06:18.586Z,99806.08
2017-11-04T12:08:46.077Z,99798.07
2017-11-04T12:11:13.606Z,99798.11
2017-11-04T12:13:41.084Z,99792.86
2017-11-04T12:16:08.573Z,99792.94
2017-11-04T12:18:36.143Z,99784.99
2017-11-04T12:21:03.661Z,99791.59
2017-11-04T12:23:31.147Z,99777.61
2017-11-04T12:25:58.659Z,99782.39
2017-11-04T12:28:26.186Z,99770.67
2017-11-04T12:30:53.747Z,99763.97
2017-11-04T12:33:21.234Z,99759.61
2017-11-04T12:35:48.756Z,99761.09
2017-11-04T12:38:16.254Z,99751.72
2017-11-04T12:40:43.759Z,99746.41
2017-11-04T12:43:11.227Z,99743.17
2017-11-04T12:45:38.732Z,99745.65
2017-11-04T12:48:06.213Z,99738.68
2017-11-04T12:50:33.732Z,99742.34
2017-11-04T12:53:01.277Z,99751.53
2017-11-04T12:55:28.777Z,99736.47
2017-11-04T12:57:56.350Z,99733.72
2017-11-04T13:00:23.882Z,99729.95
2017-11-04T13:02:51.352Z,99733.97
2017-11-04T13:05:18.890Z,99739.63
2017-11-04T13:07:46.407Z,99733.67
2017-11-04T13:10:14.004Z,99738.30
2017-11-04T13:12:41.471Z,99730.20
2017-11-04T13:15:08.982Z,99733.05
2017-11-04T13:17:36.459Z,99728.94
2017-11-04T13:20:03.978Z,99726.83
2017-11-04T13:22:31.549Z,99735.51
2017-11-04T13:24:59.055Z,99742.53
2017-11-04T13:27:26.605Z,99737.05
2017-11-04T13:29:54.185Z,99733.41
2017-11-04T13:32:21.706Z,99736.56
2017-11-04T13:34:49.195Z,99734.98
2017-11-04T13:37:16.750Z,99741.58
2017-11-04T13:39:44.297Z,99743.38
2017-11-04T13:42:11.820Z,99732.16
2017-11-04T13:44:39.343Z,99735.15
2017-11-04T13:47:06.969Z,99734.83
2017-11-04T13:49:34.655Z,99738.60
2017-11-04T13:52:02.226Z,99734.37
2017-11-04T13:54:29.779Z,99738.06
2017-11-04T13:56:57.303Z,99724.88
2017-11-04T13:59:24.791Z,99730.75
2017-11-04T14:01:52.266Z,99728.40
2017-11-04T14:04:19.849Z,99717.48
2017-11-04T14:06:47.365Z,99715.22
2017-11-04T14:09:14.990Z,99717.81
2017-11-04T14:11:42.567Z,99715.14
2017-11-04T14:14:10.129Z,99716.40
2017-11-04T14:16:37.723Z,99711.86
2017-11-04T14:19:05.226Z,99712.14
2017-11-04T14:21:32.783Z,99710.88
2017-11-04T14:24:00.250Z,99713.02
2017-11-04T14:26:27.794Z,99713.25
2017-11-04T14:28:55.301Z,99713.08
2017-11-04T14:31:23.160Z,99704.67
2017-11-04T14:33:51.189Z,99706.23
2017-11-04T14:36:18.727Z,99704.81
2017-11-04T14:38:46.271Z,99705.77
2017-11-04T14:41:13.804Z,99705.77
2017-11-04T14:43:41.329Z,99698.52
2017-11-04T14:46:08.841Z,99694.14
2017-11-04T14:48:36.563Z,99698.74
2017-11-04T14:51:04.138Z,99692.05
2017-11-04T14:53:31.667Z,99688.27
2017-11-04T14:55:59.170Z,99685.14
2017-11-04T14:58:26.683Z,99675.55
2017-11-04T15:00:54.207Z,99682.28
2017-11-04T15:03:21.780Z,99685.98
2017-11-04T15:05:49.325Z,99671.60
2017-11-04T15:08:16.839Z,99673.16
2017-11-04T15:10:44.395Z,99671.59
2017-11-04T15:13:13.459Z,99685.14
2017-11-04T15:15:41.021Z,99688.37
2017-11-04T15:18:08.538Z,99691.02
2017-11-04T15:20:36.026Z,99683.86
2017-11-04T15:23:03.532Z,99678.82
2017-11-04T15:25:31.162Z,99688.44
2017-11-04T15:27:58.674Z,99688.07
2017-11-04T15:30:35.810Z,99686.89
2017-11-04T15:33:03.436Z,99688.82
2017-11-04T15:35:31.306Z,99687.31
2017-11-04T15:37:58.926Z,99675.54
2017-11-04T15:40:26.900Z,99685.98
2017-11-04T15:42:54.471Z,99681.70
2017-11-04T15:45:21.954Z,99687.80
2017-11-04T15:47:49.517Z,99685.38
2017-11-04T15:50:17.110Z,99679.89
2017-11-04T15:52:44.971Z,99681.70
2017-11-04T15:55:12.470Z,99677.65
2017-11-04T15:57:40.008Z,99684.36
2017-11-04T16:00:07.598Z,99680.27
2017-11-04T16:02:35.096Z,99675.19
2017-11-04T17:24:32.271Z,99665.03
2017-11-04T17:26:59.898Z,99661.23
2017-11-04T17:29:27.761Z,99658.81
2017-11-04T17:31:55.481Z,99657.23
2017-11-04T17:34:23.056Z,99659.19
2017-11-04T17:36:50.528Z,99652.16
2017-11-04T17:39:18.271Z,99648.75
2017-11-04T17:41:45.830Z,99651.52
2017-11-04T17:44:17.000Z,99656.59
2017-11-04T17:46:44.715Z,99655.31
2017-11-04T17:49:12.298Z,99654.54
2017-11-04T17:51:41.081Z,99651.72
2017-11-04T17:54:08.676Z,99651.38
2017-11-04T17:56:36.425Z,99652.86
2017-11-04T17:59:15.558Z,99662.98
2017-11-04T18:01:46.130Z,99663.61
2017-11-04T18:04:14.317Z,99650.52
2017-11-04T18:06:41.988Z,99647.35
2017-11-04T18:09:09.663Z,99651.46
2017-11-04T18:11:37.143Z,99648.95
2017-11-04T18:14:04.622Z,99651.31
2017-11-04T18:16:32.097Z,99642.52
2017-11-04T18:18:59.690Z,99642.52
2017-11-04T18:21:27.186Z,99640.25
2017-11-04T18:23:54.672Z,99641.64
2017-11-04T18:26:22.182Z,99639.45
2017-11-04T18:28:49.763Z,99640.34
2017-11-04T18:31:17.246Z,99642.69
2017-11-04T18:33:44.755Z,99643.03
2017-11-04T18:36:12.226Z,99648.26
2017-11-04T18:38:40.713Z,99655.10
2017-11-04T18:41:08.252Z,99650.50
2017-11-04T18:43:35.737Z,99643.02
2017-11-04T18:46:03.219Z,99642.36
2017-11-04T18:48:30.682Z,99646.23
2017-11-04T18:50:58.298Z,99642.74
2017-11-04T18:53:25.783Z,99641.66
2017-11-04T18:55:53.388Z,99637.57
2017-11-04T18:58:20.916Z,99640.76
2017-11-04T19:00:48.427Z,99639.58
2017-11-04T19:03:15.976Z,99639.11
2017-11-04T19:05:44.379Z,99641.53
2017-11-04T19:08:12.246Z,99643.41
2017-11-04T19:10:40.639Z,99635.09
2017-11-04T19:13:08.169Z,99649.32
2017-11-04T19:15:36.739Z,99651.40
2017-11-04T19:18:04.336Z,99650.84
2017-11-04T19:20:36.846Z,99650.28
2017-11-04T19:23:05.218Z,99651.86
2017-11-04T19:25:35.526Z,99651.19
2017-11-04T19:28:03.124Z,99652.17
2017-11-04T19:30:30.976Z,99659.44
2017-11-04T19:32:58.510Z,99659.87
2017-11-04T19:35:32.645Z,99660.58
2017-11-04T19:38:00.240Z,99650.13
2017-11-04T19:40:27.699Z,99655.35
2017-11-04T19:42:55.267Z,99664.94
2017-11-04T19:45:25.940Z,99660.53
2017-11-04T19:47:53.613Z,99664.78
2017-11-04T19:50:21.235Z,99669.55
2017-11-04T19:52:49.312Z,99671.33
2017-11-04T19:55:16.870Z,99674.48
2017-11-04T19:57:46.063Z,99676.71
2017-11-04T20:00:13.689Z,99683.98
2017-11-04T20:02:41.187Z,99675.53
2017-11-04T20:05:08.743Z,99680.45
2017-11-04T20:07:36.276Z,99674.36
2017-11-04T20:10:03.782Z,99672.72
2017-11-04T20:12:31.332Z,99676.06
2017-11-04T20:14:58.872Z,99675.70
2017-11-04T20:17:26.384Z,99669.45
2017-11-04T20:19:53.933Z,99665.61
2017-11-04T20:22:21.433Z,99668.48
2017-11-04T20:24:54.590Z,99668.48
2017-11-04T20:27:22.185Z,99673.80
2017-11-04T20:29:50.040Z,99667.00
2017-11-04T20:32:17.510Z,99666.44
2017-11-04T20:34:44.992Z,99667.92
2017-11-04T20:37:12.611Z,99666.50
2017-11-04T20:39:40.110Z,99668.13
2017-11-04T20:42:07.836Z,99663.99
2017-11-04T20:44:35.383Z,99663.77
2017-11-04T20:47:02.891Z,99663.92
2017-11-04T20:49:32.411Z,99656.52
2017-11-04T20:52:04.592Z,99652.40
2017-11-04T20:54:37.976Z,99647.48
2017-11-04T20:57:06.593Z,99647.02
2017-11-04T20:59:34.448Z,99649.46
2017-11-04T21:02:02.154Z,99658.89
2017-11-04T21:04:29.798Z,99649.93
2017-11-04T21:06:57.386Z,99649.47
2017-11-04T21:09:24.977Z,99642.81
2017-11-04T21:11:52.698Z,99639.59
2017-11-04T21:14:21.380Z,99634.99
2017-11-04T21:16:48.919Z,99632.45
2017-11-04T21:19:16.468Z,99635.51
2017-11-04T21:21:45.766Z,99632.59
2017-11-04T21:24:14.013Z,99631.98
2017-11-04T21:26:41.525Z,99634.95
2017-11-04T21:29:09.920Z,99627.02
2017-11-04T21:31:37.483Z,99618.64
2017-11-04T21:34:05.159Z,99617.93
2017-11-04T21:36:32.818Z,99622.98
2017-11-04T21:39:00.397Z,99628.05
2017-11-04T21:41:27.980Z,99627.89
2017-11-04T21:43:55.536Z,99625.23
2017-11-04T21:46:23.788Z,99629.68
2017-11-04T21:48:51.489Z,99636.02
2017-11-04T21:51:19.039Z,99632.28
2017-11-04T21:53:46.883Z,99631.62
2017-11-04T21:56:14.512Z,99635.47
2017-11-04T21:58:42.570Z,99631.62
2017-11-04T22:01:10.143Z,99625.14
2017-11-04T22:03:37.670Z,99626.31
2017-11-04T22:06:05.214Z,99620.99
2017-11-04T22:08:32.769Z,99623.80
2017-11-04T22:11:00.484Z,99626.21
2017-11-04T22:13:28.025Z,99618.14
2017-11-04T22:15:55.646Z,99615.48
2017-11-04T22:18:23.220Z,99624.89
2017-11-04T22:20:50.731Z,99625.81
2017-11-04T22:23:18.224Z,99621.70
2017-11-04T22:25:45.739Z,99619.97
2017-11-04T22:28:14.830Z,99623.45
2017-11-04T22:30:44.249Z,99625.76
2017-11-04T22:33:11.972Z,99616.33
2017-11-04T22:35:39.705Z,99620.01
2017-11-04T22:38:09.514Z,99621.34
2017-11-04T22:40:37.039Z,99619.14
2017-11-04T22:43:04.757Z,99620.48
2017-11-04T22:45:32.515Z,99617.72
2017-11-04T22:47:59.999Z,99616.17
2017-11-04T22:50:27.568Z,99615.92
2017-11-04T22:52:55.111Z,99614.19
2017-11-04T22:55:25.851Z,99615.27
2017-11-04T22:57:54.299Z,99609.67
2017-11-04T23:00:22.480Z,99609.06
2017-11-04T23:02:50.553Z,99602.41
2017-11-04T23:05:18.082Z,99604.52
2017-11-04T23:07:45.647Z,99603.55
2017-11-04T23:10:13.222Z,99598.13
2017-11-04T23:12:40.773Z,99601.45
2017-11-04T23:15:08.616Z,99591.89
2017-11-04T23:17:36.202Z,99585.70
2017-11-04T23:20:04.819Z,99587.09
2017-11-04T23:22:32.365Z,99585.36
2017-11-04T23:24:59.892Z,99587.39
2017-11-04T23:27:27.474Z,99590.58
2017-11-04T23:29:54.980Z,99580.65
2017-11-04T23:32:22.520Z,99577.84
2017-11-04T23:34:50.366Z,99577.44
2017-11-04T23:37:17.913Z,99572.63
2017-11-04T23:39:45.468Z,99576.63
2017-11-04T23:42:12.942Z,99579.43
2017-11-04T23:44:40.471Z,99583.63
2017-11-04T23:47:07.948Z,99575.56
2017-11-04T23:49:35.450Z,99570.23
2017-11-04T23:52:02.985Z,99571.38
2017-11-04T23:54:30.474Z,99565.66
2017-11-04T23:56:57.978Z,99563.55
2017-11-04T23:59:25.686Z,99559.31
